createdAt,value
2019-05-11T00:01:59.673Z,4.90
2019-05-11T00:04:28.700Z,5.00
2019-05-11T00:06:57.746Z,5.00
2019-05-11T00:09:26.780Z,5.20
2019-05-11T00:11:55.819Z,5.30
2019-05-11T00:14:24.850Z,5.40
2019-05-11T00:16:53.961Z,5.50
2019-05-11T00:19:23.057Z,5.50
2019-05-11T00:21:52.092Z,5.50
2019-05-11T00:24:21.123Z,5.40
2019-05-11T00:26:50.231Z,5.40
2019-05-11T00:29:19.272Z,5.40
2019-05-11T00:31:48.322Z,5.30
2019-05-11T00:34:17.413Z,5.30
2019-05-11T00:36:46.451Z,5.30
2019-05-11T00:39:15.501Z,5.30
2019-05-11T00:41:44.628Z,5.20
2019-05-11T00:44:13.735Z,5.30
2019-05-11T00:46:42.780Z,5.30
2019-05-11T00:49:11.820Z,5.40
2019-05-11T00:51:40.932Z,5.20
2019-05-11T00:54:10.095Z,5.20
2019-05-11T00:56:39.160Z,5.20
2019-05-11T00:59:21.010Z,5.10
2019-05-11T01:01:39.035Z,5.00
2019-05-11T01:04:08.096Z,4.50
2019-05-11T01:06:37.182Z,4.30
2019-05-11T01:09:07.704Z,4.00
2019-05-11T01:11:36.753Z,3.90
2019-05-11T01:14:05.792Z,4.00
2019-05-11T01:16:34.911Z,4.00
2019-05-11T01:19:03.963Z,4.30
2019-05-11T01:21:33.003Z,4.40
2019-05-11T01:24:02.038Z,4.50
2019-05-11T01:26:31.135Z,4.50
2019-05-11T01:29:00.173Z,4.40
2019-05-11T01:31:29.272Z,4.50
2019-05-11T01:33:58.318Z,4.50
2019-05-11T01:36:27.345Z,4.50
2019-05-11T01:38:56.385Z,4.50
2019-05-11T01:41:25.431Z,4.50
2019-05-11T01:43:54.497Z,4.20
2019-05-11T01:46:23.560Z,4.00
2019-05-11T01:48:52.604Z,3.80
2019-05-11T01:51:21.644Z,3.60
2019-05-11T01:53:50.692Z,3.60
2019-05-11T01:56:19.729Z,3.60
2019-05-11T01:58:48.780Z,3.70
2019-05-11T02:01:17.804Z,3.90
2019-05-11T02:03:46.867Z,3.70
2019-05-11T02:06:15.908Z,3.70
2019-05-11T02:08:44.945Z,3.60
2019-05-11T02:11:16.183Z,3.70
2019-05-11T02:13:44.752Z,3.60
2019-05-11T02:16:13.853Z,3.60
2019-05-11T02:18:42.900Z,3.40
2019-05-11T02:21:11.938Z,3.40
2019-05-11T02:23:40.984Z,3.50
2019-05-11T02:26:10.120Z,3.40
2019-05-11T02:28:39.153Z,3.30
2019-05-11T02:31:08.270Z,3.20
2019-05-11T02:33:37.321Z,2.80
2019-05-11T02:36:06.448Z,3.00
2019-05-11T02:38:35.509Z,2.80
2019-05-11T02:41:04.608Z,2.70
2019-05-11T02:43:33.745Z,2.90
2019-05-11T02:46:02.986Z,3.20
2019-05-11T02:48:32.026Z,3.40
2019-05-11T02:51:01.256Z,3.60
2019-05-11T02:53:32.716Z,3.80
2019-05-11T02:56:01.844Z,3.80
2019-05-11T02:58:30.900Z,3.90
2019-05-11T03:01:00.011Z,3.90
2019-05-11T03:03:29.058Z,4.00
2019-05-11T03:05:58.120Z,4.00
2019-05-11T03:08:27.147Z,4.10
2019-05-11T03:10:56.203Z,4.10
2019-05-11T03:13:25.295Z,4.00
2019-05-11T03:15:54.338Z,4.00
2019-05-11T03:18:23.366Z,4.00
2019-05-11T03:20:52.402Z,4.10
2019-05-11T03:23:21.429Z,4.10
2019-05-11T03:25:50.466Z,4.10
2019-05-11T03:28:19.540Z,4.10
2019-05-11T03:30:48.573Z,4.00
2019-05-11T03:33:17.624Z,3.70
2019-05-11T03:35:46.856Z,3.50
2019-05-11T03:38:16.290Z,3.50
2019-05-11T03:40:45.385Z,3.40
2019-05-11T03:43:14.444Z,3.30
2019-05-11T03:45:43.535Z,3.30
2019-05-11T03:48:12.664Z,3.40
2019-05-11T03:50:41.760Z,3.10
2019-05-11T03:53:10.803Z,3.00
2019-05-11T03:55:39.834Z,3.30
2019-05-11T03:58:10.404Z,3.50
2019-05-11T04:00:39.438Z,3.70
2019-05-11T04:03:08.503Z,3.70
2019-05-11T04:05:37.692Z,3.70
2019-05-11T04:08:06.722Z,3.90
2019-05-11T04:10:35.965Z,4.00
2019-05-11T04:13:05.029Z,4.00
2019-05-11T04:15:34.062Z,4.00
2019-05-11T04:18:03.113Z,3.70
2019-05-11T04:20:32.209Z,3.70
2019-05-11T04:23:01.241Z,3.40
2019-05-11T04:25:30.333Z,3.60
2019-05-11T04:27:59.392Z,3.80
2019-05-11T04:30:28.443Z,4.10
2019-05-11T04:32:57.479Z,4.20
2019-05-11T04:35:26.593Z,4.40
2019-05-11T04:37:55.690Z,4.50
2019-05-11T04:40:24.741Z,4.50
2019-05-11T04:42:55.983Z,4.60
2019-05-11T04:45:24.677Z,4.60
2019-05-11T04:47:53.723Z,4.70
2019-05-11T04:50:22.761Z,4.90
2019-05-11T04:52:51.972Z,4.70
2019-05-11T04:55:21.324Z,4.30
2019-05-11T04:57:50.348Z,4.10
2019-05-11T05:00:19.549Z,4.40
2019-05-11T05:02:48.584Z,4.80
2019-05-11T05:05:17.646Z,5.10
2019-05-11T05:07:48.865Z,5.30
2019-05-11T05:10:20.036Z,4.70
2019-05-11T05:12:51.405Z,4.70
2019-05-11T05:15:18.982Z,4.90
2019-05-11T05:17:48.045Z,5.00
2019-05-11T05:20:17.254Z,5.40
2019-05-11T05:22:46.289Z,5.60
2019-05-11T05:25:15.435Z,5.70
2019-05-11T05:27:44.528Z,6.00
2019-05-11T05:30:13.739Z,6.30
2019-05-11T05:32:42.849Z,6.30
2019-05-11T05:35:11.965Z,6.50
2019-05-11T05:37:41.027Z,6.70
2019-05-11T05:40:10.103Z,6.80
2019-05-11T05:42:39.273Z,6.80
2019-05-11T05:45:08.621Z,7.00
2019-05-11T05:47:37.732Z,7.30
2019-05-11T05:50:07.433Z,7.40
2019-05-11T05:52:36.533Z,7.90
2019-05-11T05:55:06.727Z,8.10
2019-05-11T05:57:35.820Z,8.20
2019-05-11T06:00:05.696Z,8.50
2019-05-11T06:02:34.761Z,8.90
2019-05-11T06:05:05.707Z,9.30
2019-05-11T06:07:34.823Z,9.60
2019-05-11T06:10:06.358Z,9.80
2019-05-11T06:12:35.453Z,9.80
2019-05-11T06:15:07.637Z,9.60
2019-05-11T06:17:36.675Z,10.10
2019-05-11T06:20:06.696Z,10.80
2019-05-11T06:22:36.010Z,11.60
2019-05-11T06:25:06.181Z,12.20
2019-05-11T06:27:35.231Z,12.20
2019-05-11T06:30:07.123Z,12.80
2019-05-11T06:32:36.168Z,13.20
2019-05-11T06:35:09.253Z,13.30
2019-05-11T06:37:38.292Z,13.70
2019-05-11T06:40:07.868Z,14.20
2019-05-11T06:42:36.920Z,14.40
2019-05-11T06:45:07.286Z,14.50
2019-05-11T06:47:36.894Z,14.80
2019-05-11T06:50:06.367Z,15.10
2019-05-11T06:52:35.548Z,15.30
2019-05-11T06:55:05.416Z,15.30
2019-05-11T06:57:34.469Z,15.40
2019-05-11T07:00:04.251Z,15.70
2019-05-11T07:02:33.306Z,16.00
2019-05-11T07:05:02.345Z,16.00
2019-05-11T07:07:46.093Z,16.20
2019-05-11T07:10:02.161Z,16.00
2019-05-11T07:12:31.208Z,16.20
2019-05-11T07:15:00.255Z,16.40
2019-05-11T07:17:29.296Z,16.60
2019-05-11T07:19:58.331Z,16.00
2019-05-11T07:22:27.445Z,16.20
2019-05-11T07:24:56.552Z,16.60
2019-05-11T07:27:25.605Z,17.10
2019-05-11T07:29:54.657Z,16.20
2019-05-11T07:32:26.114Z,16.30
2019-05-11T07:34:54.730Z,16.70
2019-05-11T07:37:24.454Z,17.10
2019-05-11T07:39:53.678Z,16.60
2019-05-11T07:42:22.708Z,15.90
2019-05-11T07:44:51.751Z,15.60
2019-05-11T07:47:20.786Z,16.10
2019-05-11T07:49:49.828Z,16.70
2019-05-11T07:52:18.868Z,16.80
2019-05-11T07:54:52.625Z,16.60
2019-05-11T07:57:18.801Z,15.90
2019-05-11T08:00:08.153Z,15.10
2019-05-11T08:02:38.671Z,14.80
2019-05-11T08:05:24.731Z,15.30
2019-05-11T08:07:54.136Z,15.50
2019-05-11T08:10:23.188Z,15.20
2019-05-11T08:12:52.221Z,15.10
2019-05-11T08:15:21.257Z,15.20
2019-05-11T08:17:50.289Z,16.00
2019-05-11T08:20:19.409Z,16.60
2019-05-11T08:22:48.485Z,17.10
2019-05-11T08:27:58.952Z,17.60
2019-05-11T08:30:28.238Z,16.80
2019-05-11T08:32:58.238Z,16.20
2019-05-11T08:35:31.051Z,15.70
2019-05-11T08:37:58.539Z,15.40
2019-05-11T08:40:28.853Z,15.40
2019-05-11T08:42:58.407Z,15.70
2019-05-11T08:45:28.155Z,15.30
2019-05-11T08:47:58.071Z,14.70
2019-05-11T08:50:28.062Z,14.70
2019-05-11T08:52:58.138Z,14.70
2019-05-11T08:55:28.983Z,15.40
2019-05-11T08:57:58.660Z,16.10
2019-05-11T09:00:28.470Z,16.60
2019-05-11T09:02:58.381Z,16.80
2019-05-11T09:05:28.177Z,16.90
2019-05-11T09:07:57.904Z,16.60
2019-05-11T09:10:28.211Z,16.90
2019-05-11T09:12:59.064Z,16.60
2019-05-11T09:15:36.436Z,16.30
2019-05-11T09:17:59.201Z,16.30
2019-05-11T09:20:28.630Z,16.80
2019-05-11T09:22:58.915Z,17.30
2019-05-11T09:25:28.267Z,17.90
2019-05-11T09:27:58.687Z,18.40
2019-05-11T09:30:28.785Z,18.00
2019-05-11T09:32:58.285Z,17.30
2019-05-11T09:35:29.251Z,16.60
2019-05-11T09:37:58.794Z,16.10
2019-05-11T09:40:28.460Z,16.30
2019-05-11T09:42:58.538Z,16.40
2019-05-11T09:45:27.935Z,16.80
2019-05-11T09:47:58.725Z,17.20
2019-05-11T09:50:28.610Z,17.70
2019-05-11T09:52:58.212Z,18.00
2019-05-11T09:55:29.103Z,18.20
2019-05-11T09:57:58.198Z,18.20
2019-05-11T10:00:28.239Z,18.80
2019-05-11T10:02:57.802Z,19.00
2019-05-11T10:05:28.591Z,18.20
2019-05-11T10:07:58.951Z,17.40
2019-05-11T10:10:28.907Z,17.50
2019-05-11T10:12:59.044Z,17.70
2019-05-11T10:15:28.624Z,17.70
2019-05-11T10:17:58.833Z,17.90
2019-05-11T10:20:28.778Z,17.70
2019-05-11T10:22:58.113Z,18.00
2019-05-11T10:25:28.755Z,18.40
2019-05-11T10:27:58.152Z,18.50
2019-05-11T10:30:28.038Z,18.70
2019-05-11T10:32:57.854Z,18.70
2019-05-11T10:35:28.812Z,19.00
2019-05-11T10:37:58.402Z,18.80
2019-05-11T10:40:28.301Z,18.70
2019-05-11T10:42:58.954Z,18.80
2019-05-11T10:45:28.601Z,19.20
2019-05-11T10:48:00.964Z,19.30
2019-05-11T10:50:28.845Z,18.80
2019-05-11T10:52:59.055Z,18.10
2019-05-11T10:55:28.361Z,18.10
2019-05-11T10:57:58.061Z,18.60
2019-05-11T11:00:28.244Z,19.20
2019-05-11T11:02:58.159Z,19.40
2019-05-11T11:05:28.017Z,19.10
2019-05-11T11:07:58.899Z,18.70
2019-05-11T11:10:28.763Z,18.60
2019-05-11T11:12:58.405Z,18.10
2019-05-11T11:15:28.800Z,18.40
2019-05-11T11:17:58.136Z,18.70
2019-05-11T11:20:28.012Z,18.80
2019-05-11T11:22:58.393Z,19.00
2019-05-11T11:25:28.377Z,18.50
2019-05-11T11:27:57.899Z,17.80
2019-05-11T11:30:28.570Z,17.90
2019-05-11T11:32:58.716Z,18.60
2019-05-11T11:35:28.073Z,18.90
2019-05-11T11:37:58.501Z,18.90
2019-05-11T11:40:28.320Z,19.20
2019-05-11T11:42:58.076Z,19.70
2019-05-11T11:45:28.842Z,19.80
2019-05-11T11:47:58.196Z,19.00
2019-05-11T11:50:28.346Z,18.90
2019-05-11T11:52:57.880Z,18.50
2019-05-11T11:55:28.960Z,19.10
2019-05-11T11:57:58.829Z,19.10
2019-05-11T12:00:29.001Z,18.40
2019-05-11T12:02:58.232Z,18.30
2019-05-11T12:05:28.276Z,18.10
2019-05-11T12:07:58.109Z,18.10
2019-05-11T12:10:28.671Z,18.80
2019-05-11T12:12:58.196Z,19.30
2019-05-11T12:15:28.304Z,19.70
2019-05-11T12:17:58.723Z,20.00
2019-05-11T12:20:28.671Z,19.60
2019-05-11T12:22:58.204Z,19.40
2019-05-11T12:25:27.972Z,19.40
2019-05-11T12:27:57.857Z,18.80
2019-05-11T12:30:28.526Z,18.20
2019-05-11T12:32:57.851Z,18.40
2019-05-11T12:35:28.391Z,18.90
2019-05-11T12:37:58.746Z,19.50
2019-05-11T12:40:28.414Z,19.40
2019-05-11T12:42:59.061Z,18.60
2019-05-11T12:45:29.588Z,18.00
2019-05-11T12:47:58.848Z,18.00
2019-05-11T12:50:28.632Z,18.50
2019-05-11T12:52:58.866Z,19.00
2019-05-11T12:55:28.607Z,19.00
2019-05-11T12:57:58.131Z,18.80
2019-05-11T13:00:30.958Z,18.20
2019-05-11T13:02:58.689Z,18.50
2019-05-11T13:05:28.524Z,18.40
2019-05-11T13:07:58.653Z,18.70
2019-05-11T13:10:28.336Z,18.60
2019-05-11T13:12:58.158Z,18.10
2019-05-11T13:15:28.146Z,18.10
2019-05-11T13:17:58.152Z,18.30
2019-05-11T13:20:28.727Z,19.00
2019-05-11T13:22:58.709Z,19.00
2019-05-11T13:25:28.350Z,18.90
2019-05-11T13:27:58.083Z,19.40
2019-05-11T13:30:27.933Z,19.20
2019-05-11T13:32:57.964Z,19.00
2019-05-11T13:35:28.523Z,19.50
2019-05-11T13:37:58.492Z,19.40
2019-05-11T13:40:27.855Z,19.60
2019-05-11T13:42:58.221Z,19.40
2019-05-11T13:45:28.364Z,18.90
2019-05-11T13:47:59.313Z,19.10
2019-05-11T13:50:29.675Z,19.40
2019-05-11T13:52:59.041Z,19.60
2019-05-11T13:55:28.525Z,19.60
2019-05-11T13:57:57.938Z,19.40
2019-05-11T14:00:28.790Z,19.50
2019-05-11T14:02:59.755Z,19.20
2019-05-11T14:05:28.936Z,19.50
2019-05-11T14:07:58.703Z,19.50
2019-05-11T14:10:28.387Z,19.60
2019-05-11T14:12:58.245Z,19.40
2019-05-11T14:15:28.065Z,19.10
2019-05-11T14:20:28.939Z,18.90
2019-05-11T14:22:58.471Z,19.10
2019-05-11T14:25:28.085Z,18.90
2019-05-11T14:27:59.369Z,18.60
2019-05-11T14:30:28.246Z,19.00
2019-05-11T14:32:21.219Z,18.90
2019-05-11T14:32:58.111Z,19.00
2019-05-11T14:35:27.990Z,18.90
2019-05-11T14:37:58.825Z,18.60
2019-05-11T14:40:28.235Z,18.50
2019-05-11T14:42:58.055Z,18.90
2019-05-11T14:45:28.852Z,18.80
2019-05-11T14:47:58.365Z,19.00
2019-05-11T14:50:28.110Z,19.10
2019-05-11T14:52:58.064Z,18.80
2019-05-11T14:55:28.963Z,18.80
2019-05-11T14:57:58.246Z,18.80
2019-05-11T15:00:28.950Z,18.80
2019-05-11T15:02:58.536Z,18.40
2019-05-11T15:05:28.359Z,18.40
2019-05-11T15:07:58.147Z,18.10
2019-05-11T15:10:27.898Z,18.30
2019-05-11T15:12:59.033Z,18.20
2019-05-11T15:15:28.075Z,18.30
2019-05-11T15:17:58.239Z,18.20
2019-05-11T15:20:28.477Z,18.20
2019-05-11T15:22:58.190Z,18.10
2019-05-11T15:25:28.941Z,18.10
2019-05-11T15:27:58.524Z,18.10
2019-05-11T15:30:28.705Z,18.00
2019-05-11T15:32:58.593Z,17.90
2019-05-11T15:35:28.577Z,17.20
2019-05-11T15:37:58.234Z,17.40
2019-05-11T15:40:27.968Z,17.40
2019-05-11T15:42:58.591Z,17.30
2019-05-11T15:45:27.949Z,16.80
2019-05-11T15:47:58.974Z,17.10
2019-05-11T15:50:29.065Z,17.00
2019-05-11T15:52:58.718Z,17.30
2019-05-11T15:55:28.015Z,17.10
2019-05-11T15:57:57.146Z,17.20
2019-05-11T16:00:27.527Z,17.20
2019-05-11T16:02:57.811Z,17.20
2019-05-11T16:05:28.493Z,16.90
2019-05-11T16:07:58.853Z,16.70
2019-05-11T16:10:28.518Z,16.90
2019-05-11T16:12:58.554Z,16.50
2019-05-11T16:15:27.945Z,16.40
2019-05-11T16:17:57.768Z,16.40
2019-05-11T16:20:28.547Z,16.30
2019-05-11T16:22:57.888Z,16.30
2019-05-11T16:25:28.031Z,16.40
2019-05-11T16:27:57.238Z,16.00
2019-05-11T16:30:28.528Z,16.10
2019-05-11T16:32:58.065Z,16.30
2019-05-11T16:35:28.028Z,16.10
2019-05-11T16:37:59.247Z,15.90
2019-05-11T16:40:29.541Z,15.80
2019-05-11T16:42:58.921Z,15.70
2019-05-11T16:45:28.364Z,15.50
2019-05-11T16:47:58.945Z,15.40
2019-05-11T16:50:28.325Z,15.20
2019-05-11T16:52:58.526Z,14.70
2019-05-11T16:55:27.728Z,14.70
2019-05-11T16:57:58.800Z,14.60
2019-05-11T17:00:27.507Z,14.70
2019-05-11T17:02:57.732Z,14.90
2019-05-11T17:05:30.481Z,14.80
2019-05-11T17:07:58.762Z,14.80
2019-05-11T17:10:28.376Z,14.70
2019-05-11T17:12:58.108Z,14.50
2019-05-11T17:15:28.825Z,14.10
2019-05-11T17:17:58.772Z,14.20
2019-05-11T17:20:28.158Z,14.10
2019-05-11T17:22:57.206Z,14.10
2019-05-11T17:25:28.626Z,14.10
2019-05-11T17:27:58.776Z,14.00
2019-05-11T17:30:28.096Z,13.80
2019-05-11T17:32:59.177Z,13.70
2019-05-11T17:35:27.964Z,13.70
2019-05-11T17:37:57.013Z,13.70
2019-05-11T17:40:28.338Z,13.60
2019-05-11T17:42:58.532Z,13.50
2019-05-11T17:45:27.568Z,13.50
2019-05-11T17:47:58.301Z,13.50
2019-05-11T17:50:28.164Z,13.60
2019-05-11T17:52:57.548Z,13.50
2019-05-11T17:55:28.678Z,13.50
2019-05-11T17:57:58.275Z,13.50
2019-05-11T18:00:28.346Z,13.30
2019-05-11T18:02:58.360Z,13.10
2019-05-11T18:05:27.674Z,12.90
2019-05-11T18:07:58.018Z,12.80
2019-05-11T18:10:28.352Z,12.50
2019-05-11T18:12:57.873Z,12.40
2019-05-11T18:15:27.091Z,12.30
2019-05-11T18:17:58.629Z,12.20
2019-05-11T18:20:28.600Z,12.30
2019-05-11T18:22:57.841Z,12.20
2019-05-11T18:25:47.990Z,12.20
2019-05-11T18:28:18.169Z,12.10
2019-05-11T18:30:47.963Z,12.00
2019-05-11T18:33:18.841Z,11.70
2019-05-11T18:35:48.064Z,11.80
2019-05-11T18:38:17.819Z,11.70
2019-05-11T18:40:48.635Z,11.60
2019-05-11T18:43:18.870Z,11.60
2019-05-11T18:45:48.859Z,11.60
2019-05-11T18:48:18.572Z,11.50
2019-05-11T18:50:49.081Z,11.50
2019-05-11T18:53:18.807Z,11.40
2019-05-11T18:55:48.608Z,11.20
2019-05-11T18:58:18.645Z,11.20
2019-05-11T19:00:48.760Z,11.10
2019-05-11T19:03:19.330Z,11.10
2019-05-11T19:05:48.605Z,10.90
2019-05-11T19:08:18.932Z,10.80
2019-05-11T19:10:48.775Z,10.70
2019-05-11T19:13:18.169Z,10.80
2019-05-11T19:15:48.713Z,10.80
2019-05-11T19:18:18.033Z,10.70
2019-05-11T19:20:49.319Z,10.60
2019-05-11T19:23:19.200Z,10.50
2019-05-11T19:25:48.460Z,10.30
2019-05-11T19:28:18.647Z,10.30
2019-05-11T19:30:48.839Z,10.30
2019-05-11T19:33:18.978Z,10.20
2019-05-11T19:35:48.350Z,10.30
2019-05-11T19:38:18.963Z,10.20
2019-05-11T19:40:48.511Z,10.10
2019-05-11T19:43:18.620Z,10.10
2019-05-11T19:45:48.715Z,10.10
2019-05-11T19:48:17.901Z,10.20
2019-05-11T19:51:02.713Z,10.20
2019-05-11T19:53:18.766Z,10.10
2019-05-11T19:55:48.026Z,10.00
2019-05-11T19:58:19.248Z,10.00
2019-05-11T20:00:48.851Z,9.90
2019-05-11T20:03:18.375Z,9.90
2019-05-11T20:05:48.505Z,9.80
2019-05-11T20:08:18.416Z,9.80
2019-05-11T20:10:48.657Z,9.90
2019-05-11T20:13:18.371Z,9.80
2019-05-11T20:15:48.524Z,9.80
2019-05-11T20:18:18.345Z,9.70
2019-05-11T20:20:48.147Z,9.70
2019-05-11T20:23:17.346Z,9.70
2019-05-11T20:25:47.765Z,9.70
2019-05-11T20:28:18.174Z,9.50
2019-05-11T20:30:48.281Z,9.50
2019-05-11T20:33:18.915Z,9.40
2019-05-11T20:35:48.775Z,9.50
2019-05-11T20:38:18.772Z,9.60
2019-05-11T20:40:48.554Z,9.60
2019-05-11T20:43:18.562Z,9.60
2019-05-11T20:45:48.627Z,9.60
2019-05-11T20:48:18.508Z,9.60
2019-05-11T20:50:48.367Z,9.60
2019-05-11T20:53:18.206Z,9.50
2019-05-11T20:55:47.826Z,9.50
2019-05-11T20:58:18.809Z,9.50
2019-05-11T21:00:49.004Z,9.40
2019-05-11T21:03:18.353Z,9.20
2019-05-11T21:05:48.278Z,9.20
2019-05-11T21:08:17.857Z,9.30
2019-05-11T21:10:48.972Z,9.30
2019-05-11T21:13:18.056Z,9.20
2019-05-11T21:15:47.829Z,9.30
2019-05-11T21:18:18.441Z,9.10
2019-05-11T21:20:48.367Z,9.10
2019-05-11T21:23:18.565Z,9.10
2019-05-11T21:25:47.832Z,9.10
2019-05-11T21:28:16.856Z,9.10
2019-05-11T21:30:48.142Z,9.10
2019-05-11T21:33:17.931Z,9.00
2019-05-11T21:39:15.000Z,8.90
2019-05-11T21:41:44.101Z,8.80
2019-05-11T21:44:13.155Z,8.80
2019-05-11T21:46:42.273Z,8.80
2019-05-11T21:49:11.306Z,8.70
2019-05-11T21:51:40.343Z,8.70
2019-05-11T21:54:09.378Z,8.70
2019-05-11T21:56:40.878Z,8.60
2019-05-11T21:59:09.289Z,8.70
2019-05-11T22:01:38.640Z,8.50
2019-05-11T22:04:08.468Z,8.50
2019-05-11T22:06:39.205Z,8.50
2019-05-11T22:09:08.975Z,8.40
2019-05-11T22:11:38.269Z,8.30
2019-05-11T22:14:08.240Z,8.30
2019-05-11T22:16:38.656Z,8.30
2019-05-11T22:19:08.952Z,8.30
2019-05-11T22:21:38.156Z,8.30
2019-05-11T22:24:08.684Z,8.30
2019-05-11T22:26:38.046Z,8.30
2019-05-11T22:29:07.862Z,8.30
2019-05-11T22:31:38.257Z,8.20
2019-05-11T22:34:08.943Z,8.30
2019-05-11T22:36:38.703Z,8.30
2019-05-11T22:39:08.799Z,8.30
2019-05-11T22:41:39.636Z,8.40
2019-05-11T22:44:11.041Z,8.30
2019-05-11T22:46:39.459Z,8.30
2019-05-11T22:49:08.593Z,8.40
2019-05-11T22:51:37.814Z,8.40
2019-05-11T22:54:08.049Z,8.40
2019-05-11T22:56:38.028Z,8.40
2019-05-11T22:59:08.279Z,8.30
2019-05-11T23:01:38.066Z,8.20
2019-05-11T23:04:07.211Z,8.30
2019-05-11T23:06:40.254Z,8.30
2019-05-11T23:09:07.920Z,8.30
2019-05-11T23:11:37.947Z,8.20
2019-05-11T23:14:09.840Z,8.20
2019-05-11T23:16:37.873Z,8.20
2019-05-11T23:19:09.483Z,8.10
2019-05-11T23:21:38.801Z,8.10
2019-05-11T23:24:08.111Z,7.90
2019-05-11T23:26:38.634Z,7.80
2019-05-11T23:29:08.244Z,7.60
2019-05-11T23:31:38.329Z,7.70
2019-05-11T23:34:08.345Z,7.70
2019-05-11T23:36:38.254Z,7.70
2019-05-11T23:39:09.137Z,7.70
2019-05-11T23:41:38.320Z,7.60
2019-05-11T23:44:08.914Z,7.60
2019-05-11T23:46:38.613Z,7.60
2019-05-11T23:49:08.774Z,7.50
2019-05-11T23:51:38.747Z,7.50
2019-05-11T23:54:08.132Z,7.50
2019-05-11T23:56:38.662Z,7.50
2019-05-11T23:59:08.391Z,7.50
